Airfield :
LOGIN :

Register | Disclaimer

   EN    FR    IT 

 










Legend :    VFR   Marginal VFR   IFR   Intensive IFR   Very Intensive IFR
Visi :
Ceiling :
>= 8 km
>= 3000ft
5 to 8 km
1000 to 3000 ft
1500m to 5 km
500 to 1000 ft
800 to 1500m
200 to 500 ft
< 800m
< 200 ft
Symbols :   Thunderstorms  Fog  Heavy snow  Heavy precipitations  Wind > 20 kt
SIGMETs :     Misc.  Thunderstorms  Icing  Turbulence  Mountain Waves  Volcanic Ashes






- Airport Elevation : 49 ft
- IATA code : GLZ


EHGR - Gilze-Rijen Airbase

CURRENT METAR :
  • 250655Z AUTO 36005KT 300V030 3100 BR FEW004 BKN006 OVC007 01/00 Q1001 YLO BECMG SCT030

EXPIRED METARs :
  • 250625Z AUTO 02006KT 350V070 2900 BR SCT003 OVC004 01/00 Q1001 YLO
  • 250555Z AUTO 02007KT 330V060 2500 -RA SCT002 OVC004 01/00 Q1000 AMB
  • 250540Z AUTO 02007KT 340V060 2400 -SNRA BKN003 OVC004 01/00 Q1000 YLO
  • 250534Z AUTO 02006KT 330V060 2400 -SNRA SCT002 BKN004 OVC005 01/00 Q1000 AMB
  • 250525Z AUTO 02006KT 340V060 2500 -SNRA SCT003 BKN004 OVC006 01/00 Q1000 YLO
  • 250455Z AUTO 03005KT 360V090 3100 -SNRA BKN003 OVC005 01/00 Q0999 REDZSN YLO
  • 250443Z AUTO 04005KT 350V080 3500 DZ BKN003 OVC004 01/00 Q0999 YLO
  • 250425Z AUTO 03005KT 360V080 4400 -RA BKN003 OVC004 01/00 Q0999 YLO

Expired Forecast.



MET'MAP, your aeronautical weather chart ! - Copyright ORBIFLY December 2007 - Disclaimer

ORBIFLY MET'MAP TEAM :

Programming & Development : Alexandra Zaïnal
Concept & original design : Baudouin d'Aumeries
Assistance for programming : Marc-Olivier Méhu
Technical & hardware support : Manuel Goepfert

Contact : metmap@orbifly.com




SOURCES & CREDITS :

   NOAA